createdAt,value
2023-04-20T00:00:55.342Z,15.40
2023-04-20T00:03:22.649Z,15.40
2023-04-20T00:05:49.712Z,15.40
2023-04-20T00:08:17.306Z,15.30
2023-04-20T00:10:45.590Z,15.30
2023-04-20T00:13:12.685Z,15.40
2023-04-20T00:15:39.648Z,15.20
2023-04-20T00:18:07.136Z,15.30
2023-04-20T00:20:34.063Z,15.20
2023-04-20T00:23:01.403Z,15.20
2023-04-20T00:25:28.341Z,15.10
2023-04-20T00:27:55.391Z,15.10
2023-04-20T00:30:22.545Z,15.10
2023-04-20T00:32:49.614Z,14.90
2023-04-20T00:35:16.613Z,15.00
2023-04-20T00:37:43.615Z,14.90
2023-04-20T00:40:10.929Z,14.90
2023-04-20T00:42:38.042Z,14.90
2023-04-20T00:45:06.353Z,15.00
2023-04-20T00:47:33.265Z,14.90
2023-04-20T00:50:00.289Z,14.90
2023-04-20T00:52:27.246Z,14.70
2023-04-20T00:54:54.296Z,14.80
2023-04-20T00:57:21.198Z,14.80
2023-04-20T00:59:48.174Z,14.90
2023-04-20T01:02:15.077Z,14.90
2023-04-20T01:04:41.980Z,14.90
2023-04-20T01:07:08.934Z,14.90
2023-04-20T01:09:38.770Z,15.00
2023-04-20T01:12:07.059Z,15.00
2023-04-20T01:14:34.001Z,14.70
2023-04-20T01:17:01.912Z,14.80
2023-04-20T01:19:28.874Z,14.70
2023-04-20T01:21:55.834Z,14.90
2023-04-20T01:24:22.796Z,14.80
2023-04-20T01:26:49.746Z,14.60
2023-04-20T01:29:16.961Z,14.70
2023-04-20T01:31:44.147Z,14.70
2023-04-20T01:34:11.129Z,14.80
2023-04-20T01:36:38.057Z,14.60
2023-04-20T01:39:04.987Z,14.60
2023-04-20T01:41:31.877Z,14.60
2023-04-20T01:43:58.866Z,14.40
2023-04-20T01:46:25.808Z,14.40
2023-04-20T01:48:52.749Z,14.40
2023-04-20T01:51:19.706Z,14.50
2023-04-20T01:53:46.734Z,14.50
2023-04-20T01:56:13.784Z,14.50
2023-04-20T01:58:40.722Z,14.60
2023-04-20T02:01:07.714Z,14.70
2023-04-20T02:03:34.867Z,14.60
2023-04-20T02:06:02.004Z,14.60
2023-04-20T02:08:28.971Z,14.60
2023-04-20T02:10:55.876Z,14.60
2023-04-20T02:13:22.763Z,14.50
2023-04-20T02:15:49.730Z,14.50
2023-04-20T02:18:16.693Z,14.50
2023-04-20T02:20:44.518Z,14.50
2023-04-20T02:23:11.749Z,14.40
2023-04-20T02:25:38.710Z,14.40
2023-04-20T02:28:05.737Z,14.30
2023-04-20T02:30:32.685Z,14.50
2023-04-20T02:32:59.896Z,14.40
2023-04-20T02:35:26.855Z,14.60
2023-04-20T02:37:53.813Z,14.40
2023-04-20T02:40:20.903Z,14.30
2023-04-20T02:42:47.841Z,14.30
2023-04-20T02:45:14.926Z,14.40
2023-04-20T02:47:41.982Z,14.60
2023-04-20T02:50:09.554Z,14.30
2023-04-20T02:52:36.509Z,14.40
2023-04-20T02:55:03.732Z,14.40
2023-04-20T02:57:30.706Z,14.30
2023-04-20T02:59:57.650Z,14.30
2023-04-20T03:02:24.741Z,14.30
2023-04-20T03:04:51.809Z,14.60
2023-04-20T03:07:18.817Z,14.40
2023-04-20T03:09:45.797Z,14.40
2023-04-20T03:12:12.804Z,14.50
2023-04-20T03:14:39.781Z,14.50
2023-04-20T03:17:06.711Z,14.50
2023-04-20T03:19:33.584Z,14.20
2023-04-20T03:22:00.500Z,14.50
2023-04-20T03:24:27.478Z,14.40
2023-04-20T03:26:54.491Z,14.40
2023-04-20T03:29:21.448Z,14.30
2023-04-20T03:31:48.493Z,14.40
2023-04-20T03:34:15.446Z,14.40
2023-04-20T03:36:42.314Z,14.40
2023-04-20T03:39:09.198Z,14.40
2023-04-20T03:41:36.097Z,14.40
2023-04-20T03:44:03.108Z,14.40
2023-04-20T03:46:30.147Z,14.40
2023-04-20T03:48:57.146Z,14.40
2023-04-20T03:51:24.103Z,14.40
2023-04-20T03:53:51.046Z,14.40
2023-04-20T03:56:17.954Z,14.30
2023-04-20T03:58:44.902Z,14.20
2023-04-20T04:01:11.870Z,14.30
2023-04-20T04:03:38.966Z,14.20
2023-04-20T04:06:07.466Z,14.10
2023-04-20T04:08:34.357Z,14.10
2023-04-20T04:11:01.307Z,14.10
2023-04-20T04:13:28.263Z,14.20
2023-04-20T04:15:55.243Z,14.10
2023-04-20T04:18:22.539Z,14.10
2023-04-20T04:20:49.519Z,14.20
2023-04-20T04:23:16.486Z,14.30
2023-04-20T04:25:43.405Z,14.20
2023-04-20T04:28:10.482Z,14.10
2023-04-20T04:30:37.415Z,14.10
2023-04-20T04:33:04.453Z,14.10
2023-04-20T04:35:31.790Z,14.20
2023-04-20T04:37:58.685Z,14.30
2023-04-20T04:40:25.649Z,14.30
2023-04-20T04:42:52.600Z,14.30
2023-04-20T04:45:19.656Z,14.30
2023-04-20T04:47:46.770Z,14.40
2023-04-20T04:50:13.730Z,14.40
2023-04-20T04:52:40.634Z,14.40
2023-04-20T04:55:08.243Z,14.20
2023-04-20T04:57:35.620Z,14.40
2023-04-20T05:00:02.680Z,14.60
2023-04-20T05:02:29.866Z,14.60
2023-04-20T05:04:57.000Z,14.50
2023-04-20T05:07:24.009Z,14.50
2023-04-20T05:09:50.965Z,14.70
2023-04-20T05:12:17.973Z,14.60
2023-04-20T05:14:44.900Z,14.70
2023-04-20T05:17:11.879Z,14.70
2023-04-20T05:19:38.855Z,14.60
2023-04-20T05:22:05.903Z,14.60
2023-04-20T05:24:32.906Z,14.70
2023-04-20T05:26:59.805Z,14.80
2023-04-20T05:29:26.793Z,14.80
2023-04-20T05:31:53.840Z,14.90
2023-04-20T05:34:20.762Z,14.90
2023-04-20T05:36:47.702Z,14.70
2023-04-20T05:39:14.714Z,14.50
2023-04-20T05:41:41.759Z,14.60
2023-04-20T05:44:08.628Z,14.60
2023-04-20T05:46:35.554Z,14.90
2023-04-20T05:49:02.502Z,15.00
2023-04-20T05:51:50.852Z,14.90
2023-04-20T05:54:17.781Z,15.10
2023-04-20T05:56:44.765Z,15.10
2023-04-20T05:59:12.610Z,15.10
2023-04-20T06:01:49.776Z,15.30
2023-04-20T06:04:32.989Z,15.30
2023-04-20T06:07:00.224Z,15.40
2023-04-20T06:09:27.138Z,15.60
2023-04-20T06:11:54.036Z,15.90
2023-04-20T06:14:20.935Z,16.00
2023-04-20T06:16:47.929Z,16.20
2023-04-20T06:19:15.007Z,16.80
2023-04-20T06:21:42.133Z,17.00
2023-04-20T06:24:09.137Z,19.10
2023-04-20T06:26:36.207Z,20.30
2023-04-20T06:29:03.208Z,22.10
2023-04-20T06:31:30.127Z,22.80
2023-04-20T06:33:57.063Z,23.80
2023-04-20T06:36:23.961Z,23.70
2023-04-20T06:38:50.982Z,23.80
2023-04-20T06:41:18.004Z,24.50
2023-04-20T06:43:44.945Z,24.20
2023-04-20T06:46:12.003Z,24.90
2023-04-20T06:48:38.980Z,24.90
2023-04-20T06:51:06.091Z,25.60
2023-04-20T06:53:33.127Z,25.50
2023-04-20T06:56:00.164Z,24.40
2023-04-20T06:58:27.104Z,25.10
2023-04-20T07:00:54.041Z,25.60
2023-04-20T07:03:21.259Z,24.60
2023-04-20T07:05:48.277Z,23.60
2023-04-20T07:08:15.258Z,22.00
2023-04-20T07:10:42.158Z,21.50
2023-04-20T07:13:09.060Z,21.10
2023-04-20T07:15:35.969Z,20.80
2023-04-20T07:18:03.033Z,20.60
2023-04-20T07:20:31.008Z,19.90
2023-04-20T07:22:57.875Z,19.50
2023-04-20T07:25:24.810Z,18.70
2023-04-20T07:27:51.823Z,18.90
2023-04-20T07:30:18.889Z,19.00
2023-04-20T07:32:45.942Z,18.60
2023-04-20T07:35:12.937Z,18.60
2023-04-20T07:37:40.598Z,18.10
2023-04-20T07:40:08.757Z,17.80
2023-04-20T07:42:35.997Z,17.40
2023-04-20T07:45:04.840Z,17.10
2023-04-20T07:47:33.077Z,17.10
2023-04-20T07:50:00.155Z,17.40
2023-04-20T07:52:27.167Z,17.40
2023-04-20T07:54:55.148Z,17.20
2023-04-20T07:57:22.132Z,17.00
2023-04-20T07:59:49.084Z,16.60
2023-04-20T08:02:16.146Z,16.50
2023-04-20T08:04:43.515Z,16.40
2023-04-20T08:07:13.630Z,16.40
2023-04-20T08:09:40.634Z,17.00
2023-04-20T08:12:07.844Z,17.30
2023-04-20T08:14:34.861Z,18.10
2023-04-20T08:17:01.871Z,17.90
2023-04-20T08:19:28.774Z,17.50
2023-04-20T08:21:56.048Z,17.70
2023-04-20T08:24:23.010Z,17.30
2023-04-20T08:26:50.133Z,17.30
2023-04-20T08:29:17.672Z,17.60
2023-04-20T08:31:44.687Z,17.90
2023-04-20T08:34:12.361Z,18.00
2023-04-20T08:36:39.425Z,18.70
2023-04-20T08:39:18.625Z,19.50
2023-04-20T08:41:45.598Z,19.30
2023-04-20T08:44:12.530Z,19.40
2023-04-20T08:46:40.698Z,19.80
2023-04-20T08:49:12.000Z,19.60
2023-04-20T08:51:40.238Z,19.30
2023-04-20T08:54:07.498Z,18.90
2023-04-20T08:56:35.791Z,18.90
2023-04-20T08:59:03.264Z,19.10
2023-04-20T09:01:35.615Z,18.60
2023-04-20T09:04:14.801Z,18.40
2023-04-20T09:06:48.056Z,18.40
2023-04-20T09:09:14.981Z,18.20
2023-04-20T09:11:41.902Z,18.40
2023-04-20T09:14:13.755Z,18.60
2023-04-20T09:16:57.075Z,18.40
2023-04-20T09:19:25.300Z,18.70
2023-04-20T09:21:54.380Z,19.20
2023-04-20T09:24:22.581Z,19.90
2023-04-20T09:26:49.574Z,19.80
2023-04-20T09:29:20.949Z,19.60
2023-04-20T09:31:48.679Z,19.10
2023-04-20T09:34:15.939Z,19.40
2023-04-20T09:36:44.732Z,19.10
2023-04-20T09:39:19.622Z,19.50
2023-04-20T09:41:46.913Z,19.50
2023-04-20T09:44:15.714Z,19.50
2023-04-20T09:46:43.224Z,19.20
2023-04-20T09:49:11.899Z,19.00
2023-04-20T09:51:41.296Z,19.20
2023-04-20T09:54:08.639Z,19.20
2023-04-20T09:56:35.827Z,19.10
2023-04-20T09:59:02.887Z,18.80
2023-04-20T10:01:31.390Z,18.50
2023-04-20T10:03:58.889Z,17.70
2023-04-20T10:06:31.160Z,17.20
2023-04-20T10:08:58.582Z,17.40
2023-04-20T10:11:51.550Z,17.30
2023-04-20T10:14:25.119Z,17.50
2023-04-20T10:17:06.553Z,17.50
2023-04-20T10:19:44.260Z,17.30
2023-04-20T10:22:13.576Z,16.90
2023-04-20T10:24:40.612Z,17.00
2023-04-20T10:27:18.855Z,16.90
2023-04-20T10:29:45.838Z,16.70
2023-04-20T10:32:26.636Z,16.50
2023-04-20T10:35:09.495Z,16.60
2023-04-20T10:37:36.513Z,16.50
2023-04-20T10:40:04.752Z,16.40
2023-04-20T10:42:43.280Z,16.60
2023-04-20T10:45:10.428Z,16.40
2023-04-20T10:47:37.523Z,16.40
2023-04-20T10:50:13.102Z,16.70
2023-04-20T10:52:42.016Z,16.70
2023-04-20T10:55:25.826Z,16.50
2023-04-20T10:57:53.031Z,16.40
2023-04-20T11:00:21.599Z,16.60
2023-04-20T11:02:55.323Z,16.60
2023-04-20T11:05:24.625Z,16.40
2023-04-20T11:07:55.575Z,16.20
2023-04-20T11:10:25.334Z,16.60
2023-04-20T11:12:52.276Z,16.20
2023-04-20T11:15:19.238Z,16.10
2023-04-20T11:17:46.294Z,16.30
2023-04-20T11:20:14.754Z,16.10
2023-04-20T11:22:42.552Z,16.10
2023-04-20T11:25:11.170Z,16.10
2023-04-20T11:27:38.767Z,16.00
2023-04-20T11:30:06.669Z,15.70
2023-04-20T11:32:34.099Z,15.70
2023-04-20T11:35:07.205Z,15.50
2023-04-20T11:37:48.090Z,15.70
2023-04-20T11:40:15.257Z,15.70
2023-04-20T11:42:42.319Z,15.80
2023-04-20T11:45:09.934Z,16.20
2023-04-20T11:47:37.144Z,16.80
2023-04-20T11:50:05.289Z,16.90
2023-04-20T11:52:32.185Z,16.90
2023-04-20T11:54:59.112Z,16.50
2023-04-20T11:57:26.616Z,16.70
2023-04-20T11:59:53.591Z,17.10
2023-04-20T12:02:20.600Z,17.20
2023-04-20T12:04:47.866Z,17.10
2023-04-20T12:07:14.975Z,16.70
2023-04-20T12:09:41.942Z,16.50
2023-04-20T12:12:08.878Z,16.30
2023-04-20T12:14:35.853Z,16.20
2023-04-20T12:17:03.534Z,16.40
2023-04-20T12:19:31.089Z,16.30
2023-04-20T12:21:58.147Z,16.20
2023-04-20T12:24:25.074Z,16.10
2023-04-20T12:26:52.030Z,15.80
2023-04-20T12:29:19.345Z,15.90
2023-04-20T12:31:46.568Z,15.90
2023-04-20T12:34:13.524Z,15.90
2023-04-20T12:36:40.462Z,15.90
2023-04-20T12:39:07.444Z,16.00
2023-04-20T12:41:34.424Z,16.00
2023-04-20T12:44:04.284Z,15.90
2023-04-20T12:46:33.035Z,16.00
2023-04-20T12:48:59.978Z,15.90
2023-04-20T12:51:26.883Z,16.00
2023-04-20T12:53:53.814Z,16.10
2023-04-20T12:56:20.718Z,16.10
2023-04-20T12:58:49.015Z,16.20
2023-04-20T13:01:17.458Z,16.00
2023-04-20T13:03:44.521Z,16.30
2023-04-20T13:06:14.152Z,16.10
2023-04-20T13:08:41.252Z,15.80
2023-04-20T13:11:08.177Z,15.90
2023-04-20T13:13:35.135Z,16.40
2023-04-20T13:16:02.122Z,16.30
2023-04-20T13:18:29.098Z,16.10
2023-04-20T13:20:56.006Z,15.90
2023-04-20T13:23:22.897Z,15.80
2023-04-20T13:25:49.776Z,15.90
2023-04-20T13:28:16.657Z,15.90
2023-04-20T13:30:43.658Z,16.20
2023-04-20T13:33:10.813Z,16.30
2023-04-20T13:35:37.793Z,16.30
2023-04-20T13:38:04.840Z,16.60
2023-04-20T13:40:31.805Z,16.90
2023-04-20T13:42:58.730Z,16.60
2023-04-20T13:45:25.757Z,16.60
2023-04-20T13:47:52.797Z,16.50
2023-04-20T13:50:19.770Z,16.40
2023-04-20T13:52:46.732Z,16.20
2023-04-20T13:55:13.661Z,16.30
2023-04-20T13:57:40.564Z,16.40
2023-04-20T14:00:08.755Z,16.20
2023-04-20T14:02:35.851Z,16.00
2023-04-20T14:05:02.957Z,15.70
2023-04-20T14:07:30.749Z,15.60
2023-04-20T14:09:57.875Z,15.50
2023-04-20T14:12:24.809Z,15.40
2023-04-20T14:14:51.749Z,15.30
2023-04-20T14:17:18.814Z,15.40
2023-04-20T14:19:45.841Z,15.50
2023-04-20T14:22:12.818Z,15.60
2023-04-20T14:24:39.809Z,15.50
2023-04-20T14:27:06.654Z,15.50
2023-04-20T14:29:33.628Z,15.60
2023-04-20T14:32:00.588Z,15.60
2023-04-20T14:34:27.525Z,15.60
2023-04-20T14:36:54.403Z,15.60
2023-04-20T14:39:21.307Z,15.70
2023-04-20T14:41:48.170Z,15.70
2023-04-20T14:44:15.059Z,15.80
2023-04-20T14:46:42.703Z,15.90
2023-04-20T14:49:09.891Z,16.20
2023-04-20T14:51:36.839Z,16.50
2023-04-20T14:54:03.844Z,16.70
2023-04-20T14:56:30.892Z,16.80
2023-04-20T14:59:00.874Z,16.60
2023-04-20T15:01:28.129Z,16.60
2023-04-20T15:03:55.489Z,16.60
2023-04-20T15:06:22.857Z,16.50
2023-04-20T15:08:49.804Z,16.40
2023-04-20T15:11:16.773Z,16.30
2023-04-20T15:13:43.868Z,16.40
2023-04-20T15:16:10.771Z,16.40
2023-04-20T15:18:37.749Z,16.30
2023-04-20T15:21:04.943Z,16.30
2023-04-20T15:23:31.913Z,16.20
2023-04-20T15:25:58.947Z,16.30
2023-04-20T15:28:25.938Z,16.20
2023-04-20T15:30:52.892Z,16.20
2023-04-20T15:33:19.944Z,16.20
2023-04-20T15:35:46.966Z,16.10
2023-04-20T15:38:13.950Z,16.10
2023-04-20T15:40:40.959Z,16.00
2023-04-20T15:43:07.884Z,16.20
2023-04-20T15:45:34.878Z,16.10
2023-04-20T15:48:01.889Z,16.00
2023-04-20T15:50:28.807Z,15.90
2023-04-20T15:52:55.671Z,16.10
2023-04-20T15:55:22.755Z,16.10
2023-04-20T15:57:49.652Z,16.10
2023-04-20T16:00:17.092Z,16.00
2023-04-20T16:02:44.098Z,15.90
2023-04-20T16:05:11.230Z,15.80
2023-04-20T16:07:38.172Z,15.50
2023-04-20T16:10:06.178Z,15.60
2023-04-20T16:12:33.158Z,15.50
2023-04-20T16:15:03.919Z,15.40
2023-04-20T16:17:30.897Z,15.50
2023-04-20T16:19:57.919Z,15.40
2023-04-20T16:22:24.854Z,15.30
2023-04-20T16:24:51.861Z,15.30
2023-04-20T16:27:18.879Z,15.20
2023-04-20T16:29:45.857Z,15.20
2023-04-20T16:32:13.157Z,15.20
2023-04-20T16:34:40.042Z,15.20
2023-04-20T16:37:07.014Z,15.30
2023-04-20T16:39:34.011Z,15.40
2023-04-20T16:42:01.189Z,15.30
2023-04-20T16:44:28.187Z,15.30
2023-04-20T16:46:55.184Z,15.30
2023-04-20T16:49:22.189Z,15.20
2023-04-20T16:51:49.125Z,15.10
2023-04-20T16:54:16.302Z,15.10
2023-04-20T16:56:43.468Z,15.10
2023-04-20T16:59:10.383Z,15.00
2023-04-20T17:01:37.481Z,15.00
2023-04-20T17:04:04.610Z,15.10
2023-04-20T17:06:31.798Z,15.20
2023-04-20T17:08:58.733Z,15.00
2023-04-20T17:11:25.716Z,14.90
2023-04-20T17:13:54.837Z,14.90
2023-04-20T17:16:21.866Z,14.90
2023-04-20T17:18:48.891Z,15.10
2023-04-20T17:21:15.779Z,15.20
2023-04-20T17:23:42.738Z,15.30
2023-04-20T17:26:09.677Z,15.20
2023-04-20T17:28:36.621Z,15.20
2023-04-20T17:31:03.557Z,14.90
2023-04-20T17:33:30.451Z,14.70
2023-04-20T17:35:57.521Z,14.60
2023-04-20T17:38:24.555Z,14.50
2023-04-20T17:40:51.520Z,14.40
2023-04-20T17:43:18.467Z,14.20
2023-04-20T17:45:45.381Z,14.00
2023-04-20T17:48:12.339Z,14.00
2023-04-20T17:50:39.335Z,14.10
2023-04-20T17:53:06.315Z,14.00
2023-04-20T17:55:37.044Z,13.80
2023-04-20T17:58:03.972Z,13.70
2023-04-20T18:00:30.907Z,13.50
2023-04-20T18:02:58.846Z,13.50
2023-04-20T18:05:26.191Z,13.50
2023-04-20T18:07:53.127Z,13.30
2023-04-20T18:10:20.162Z,13.30
2023-04-20T18:12:47.330Z,13.30
2023-04-20T18:15:14.572Z,13.30
2023-04-20T18:17:41.605Z,13.20
2023-04-20T18:20:09.012Z,13.30
2023-04-20T18:22:36.683Z,13.30
2023-04-20T18:25:04.324Z,13.20
2023-04-20T18:27:31.336Z,13.20
2023-04-20T18:29:58.300Z,13.10
2023-04-20T18:32:26.318Z,13.00
2023-04-20T18:34:53.473Z,12.90
2023-04-20T18:37:20.374Z,13.00
2023-04-20T18:39:47.371Z,13.00
2023-04-20T18:42:14.271Z,13.00
2023-04-20T18:44:41.247Z,13.00
2023-04-20T18:47:08.309Z,12.90
2023-04-20T18:49:35.344Z,13.00
2023-04-20T18:52:03.305Z,13.00
2023-04-20T18:54:30.320Z,13.00
2023-04-20T18:56:57.268Z,12.90
2023-04-20T18:59:24.231Z,12.90
2023-04-20T19:01:51.213Z,12.90
2023-04-20T19:04:18.505Z,12.90
2023-04-20T19:06:45.743Z,13.00
2023-04-20T19:09:13.121Z,13.00
2023-04-20T19:11:40.086Z,13.00
2023-04-20T19:14:07.039Z,12.90
2023-04-20T19:16:34.178Z,13.00
2023-04-20T19:19:01.336Z,13.10
2023-04-20T19:21:28.231Z,13.10
2023-04-20T19:23:55.934Z,13.20
2023-04-20T19:26:22.815Z,13.20
2023-04-20T19:28:49.698Z,13.20
2023-04-20T19:31:16.680Z,13.30
2023-04-20T19:33:43.560Z,13.10
2023-04-20T19:36:10.422Z,13.20
2023-04-20T19:38:37.314Z,13.30
2023-04-20T19:41:05.160Z,13.30
2023-04-20T19:43:32.087Z,13.20
2023-04-20T19:45:59.360Z,13.20
2023-04-20T19:48:26.334Z,13.10
2023-04-20T19:50:53.352Z,12.90
2023-04-20T19:53:20.209Z,12.90
2023-04-20T19:55:47.115Z,12.90
2023-04-20T19:58:14.007Z,12.90
2023-04-20T20:00:40.919Z,13.00
2023-04-20T20:03:08.259Z,13.00
2023-04-20T20:05:35.397Z,13.00
2023-04-20T20:08:02.361Z,13.10
2023-04-20T20:10:29.257Z,13.10
2023-04-20T20:12:56.221Z,13.20
2023-04-20T20:15:23.325Z,13.10
2023-04-20T20:17:50.360Z,13.00
2023-04-20T20:20:17.395Z,13.10
2023-04-20T20:22:44.242Z,13.10
2023-04-20T20:25:11.146Z,13.00
2023-04-20T20:27:38.034Z,13.00
2023-04-20T20:30:05.782Z,13.00
2023-04-20T20:32:32.667Z,12.90
2023-04-20T20:34:59.594Z,12.80
2023-04-20T20:37:26.520Z,12.80
2023-04-20T20:39:53.457Z,12.90
2023-04-20T20:42:20.350Z,12.90
2023-04-20T20:44:47.414Z,12.90
2023-04-20T20:47:14.369Z,12.90
2023-04-20T20:49:41.272Z,12.90
2023-04-20T20:52:08.173Z,12.90
2023-04-20T20:54:35.080Z,12.70
2023-04-20T20:57:01.936Z,12.70
2023-04-20T20:59:28.840Z,12.70
2023-04-20T21:01:55.789Z,12.70
2023-04-20T21:04:22.838Z,12.80
2023-04-20T21:06:49.850Z,12.70
2023-04-20T21:09:17.052Z,12.90
2023-04-20T21:11:44.029Z,12.70
2023-04-20T21:14:10.933Z,12.80
2023-04-20T21:16:37.847Z,12.80
2023-04-20T21:19:04.943Z,12.90
2023-04-20T21:21:31.865Z,12.90
2023-04-20T21:23:59.176Z,12.80
2023-04-20T21:26:26.020Z,12.90
2023-04-20T21:28:52.871Z,12.90
2023-04-20T21:31:19.752Z,12.90
2023-04-20T21:33:46.589Z,12.90
2023-04-20T21:36:13.479Z,12.90
2023-04-20T21:38:40.333Z,12.70
2023-04-20T21:41:07.221Z,12.80
2023-04-20T21:43:34.120Z,12.90
2023-04-20T21:46:00.972Z,12.90
2023-04-20T21:48:27.869Z,12.80
2023-04-20T21:50:54.756Z,12.80
2023-04-20T21:53:21.617Z,12.70
2023-04-20T21:55:48.619Z,12.80
2023-04-20T21:58:15.531Z,12.70
2023-04-20T22:00:42.449Z,12.70
2023-04-20T22:03:09.431Z,12.70
2023-04-20T22:05:36.363Z,12.70
2023-04-20T22:08:03.308Z,12.50
2023-04-20T22:10:30.404Z,12.70
2023-04-20T22:12:57.268Z,12.70
2023-04-20T22:15:24.287Z,12.40
2023-04-20T22:17:51.329Z,12.50
2023-04-20T22:20:18.341Z,12.50
2023-04-20T22:22:45.562Z,12.50
2023-04-20T22:25:12.448Z,12.20
2023-04-20T22:27:39.345Z,12.30
2023-04-20T22:30:07.168Z,12.30
2023-04-20T22:32:34.051Z,12.20
2023-04-20T22:35:01.073Z,12.40
2023-04-20T22:37:27.971Z,12.10
2023-04-20T22:39:54.832Z,12.10
2023-04-20T22:42:21.733Z,12.10
2023-04-20T22:44:48.628Z,12.30
2023-04-20T22:47:15.551Z,12.30
2023-04-20T22:49:42.422Z,12.10
2023-04-20T22:52:09.415Z,12.00
2023-04-20T22:54:36.339Z,12.20
2023-04-20T22:57:03.662Z,12.20
2023-04-20T22:59:30.560Z,12.10
2023-04-20T23:01:57.554Z,12.10
2023-04-20T23:04:24.588Z,12.20
2023-04-20T23:06:51.497Z,12.10
2023-04-20T23:09:18.534Z,12.20
2023-04-20T23:11:45.525Z,12.20
2023-04-20T23:14:12.431Z,12.20
2023-04-20T23:16:39.422Z,12.10
2023-04-20T23:19:06.428Z,12.20
2023-04-20T23:21:33.381Z,12.10
2023-04-20T23:24:00.275Z,12.00
2023-04-20T23:26:27.242Z,12.10
2023-04-20T23:28:54.309Z,12.00
2023-04-20T23:31:21.454Z,12.00
2023-04-20T23:33:48.417Z,11.80
2023-04-20T23:36:15.536Z,11.70
2023-04-20T23:38:42.747Z,11.70
2023-04-20T23:41:10.911Z,11.70
2023-04-20T23:43:38.106Z,11.90
2023-04-20T23:46:06.089Z,11.50
2023-04-20T23:48:33.733Z,11.70
2023-04-20T23:51:01.356Z,11.80
2023-04-20T23:53:28.364Z,11.60
2023-04-20T23:55:55.409Z,11.60
2023-04-20T23:58:26.543Z,11.70
